Time;durP1;ratioP1;P1;durP2;ratioP2;P2;SDS_P1;SDS_P2;PMS_P1;PMS_P2;Temp;Humidity;BMP_temperature;BMP_pressure;BME280_temperature;BME280_humidity;BME280_pressure;Samples;Min_cycle;Max_cycle;Signal;HPM_P1;HPM_P2
2021/09/25 00:00:27;;;;;;;3.97;1.67;;;17.50;86.40;;;;;;2072786;28;20037;-93
2021/09/25 00:01:28;;;;;;;3.53;2.00;;;17.60;86.40;;;;;;2057790;28;20034;-93
2021/09/25 00:02:29;;;;;;;3.55;1.95;;;17.60;86.40;;;;;;2034796;29;20036;-93
2021/09/25 00:03:29;;;;;;;3.22;1.98;;;17.60;86.40;;;;;;2026570;29;20500;-93
2021/09/25 00:04:30;;;;;;;3.40;2.00;;;17.60;86.40;;;;;;2042539;29;20083;-93
2021/09/25 00:05:37;;;;;;;2.92;1.65;;;17.60;86.30;;;;;;2056124;29;20028;-94
2021/09/25 00:06:38;;;;;;;3.92;1.67;;;17.60;86.30;;;;;;2050711;28;20059;-94
2021/09/25 00:07:38;;;;;;;3.53;1.77;;;17.60;86.20;;;;;;2064738;28;20516;-94
2021/09/25 00:08:39;;;;;;;2.95;1.90;;;17.60;86.20;;;;;;2063820;28;20034;-93
2021/09/25 00:09:40;;;;;;;3.53;2.03;;;17.60;86.20;;;;;;2047885;29;20090;-95
2021/09/25 00:10:41;;;;;;;2.88;1.67;;;17.60;86.20;;;;;;2048202;28;20052;-93
2021/09/25 00:11:42;;;;;;;2.58;1.65;;;17.60;86.20;;;;;;2046939;29;20036;-93
2021/09/25 00:12:43;;;;;;;3.97;1.77;;;17.60;86.20;;;;;;2047173;29;20054;-94
2021/09/25 00:13:44;;;;;;;4.28;2.17;;;17.60;86.10;;;;;;2062900;28;20050;-93
2021/09/25 00:14:45;;;;;;;2.83;1.90;;;17.60;86.10;;;;;;2055409;29;20035;-93
2021/09/25 00:15:46;;;;;;;5.15;1.88;;;17.60;86.10;;;;;;2057576;29;20063;-93
2021/09/25 00:16:46;;;;;;;3.28;2.00;;;17.60;86.10;;;;;;2056134;28;20039;-93
2021/09/25 00:17:47;;;;;;;2.85;1.85;;;17.60;86.10;;;;;;2056745;28;20032;-94
2021/09/25 00:18:48;;;;;;;3.28;1.60;;;17.60;86.10;;;;;;2051547;28;20049;-93
2021/09/25 00:19:48;;;;;;;2.55;1.70;;;17.60;86.00;;;;;;2044290;29;20159;-94
2021/09/25 00:20:49;;;;;;;4.30;1.83;;;17.60;86.00;;;;;;2051239;29;20051;-93
2021/09/25 00:21:50;;;;;;;3.05;1.73;;;17.50;85.90;;;;;;2042120;29;20055;-94
2021/09/25 00:22:50;;;;;;;3.00;1.80;;;17.60;86.00;;;;;;2042182;28;20082;-93
2021/09/25 00:23:51;;;;;;;2.90;1.60;;;17.50;85.90;;;;;;2049875;29;20086;-93
2021/09/25 00:24:52;;;;;;;2.63;1.55;;;17.60;85.90;;;;;;2034379;29;20058;-93
2021/09/25 00:25:53;;;;;;;2.47;1.67;;;17.60;86.50;;;;;;2042144;29;20039;-94
2021/09/25 00:26:54;;;;;;;2.78;1.90;;;17.60;85.90;;;;;;2049637;29;20439;-94
2021/09/25 00:27:55;;;;;;;3.00;1.60;;;17.60;85.80;;;;;;2050096;29;20494;-93
2021/09/25 00:28:55;;;;;;;2.60;1.65;;;17.60;85.80;;;;;;2042521;29;20048;-94
2021/09/25 00:29:57;;;;;;;3.08;1.73;;;17.60;85.80;;;;;;2057874;28;20038;-93
2021/09/25 00:30:57;;;;;;;2.25;1.50;;;17.60;85.80;;;;;;2034328;29;20057;-93
2021/09/25 00:31:59;;;;;;;2.45;1.48;;;17.60;85.80;;;;;;2049973;28;20081;-93
2021/09/25 00:32:59;;;;;;;2.65;1.50;;;17.60;85.80;;;;;;2050170;28;20121;-94
2021/09/25 00:34:00;;;;;;;2.67;1.83;;;17.60;85.70;;;;;;2049871;29;20031;-94
2021/09/25 00:35:01;;;;;;;2.15;1.50;;;17.60;85.70;;;;;;2056332;28;20031;-93
2021/09/25 00:36:02;;;;;;;3.42;1.70;;;17.60;85.70;;;;;;2042087;29;20071;-94
2021/09/25 00:37:03;;;;;;;2.55;1.65;;;17.60;85.70;;;;;;2041966;28;20035;-93
2021/09/25 00:38:04;;;;;;;2.45;1.50;;;17.60;85.60;;;;;;2042203;29;20043;-93
2021/09/25 00:39:05;;;;;;;3.88;1.55;;;17.60;85.60;;;;;;2033942;29;20064;-94
2021/09/25 00:40:07;;;;;;;2.78;1.50;;;17.60;85.50;;;;;;2034120;29;20042;-93
2021/09/25 00:41:08;;;;;;;2.50;1.45;;;17.60;85.60;;;;;;2058062;28;20054;-93
2021/09/25 00:42:08;;;;;;;3.03;1.70;;;17.60;85.50;;;;;;2065524;28;20041;-94
2021/09/25 00:43:09;;;;;;;2.58;1.50;;;17.60;85.50;;;;;;2057866;28;20062;-93
2021/09/25 00:44:10;;;;;;;1.92;1.33;;;17.60;86.10;;;;;;2049792;29;20465;-93
2021/09/25 00:45:11;;;;;;;2.80;1.75;;;17.50;85.40;;;;;;2041904;29;20474;-94
2021/09/25 00:46:14;;;;;;;3.10;1.63;;;17.60;85.60;;;;;;2050002;28;20027;-93
2021/09/25 00:47:15;;;;;;;2.38;1.55;;;17.60;85.40;;;;;;2055865;28;20493;-94
2021/09/25 00:48:15;;;;;;;3.97;1.60;;;17.60;85.40;;;;;;2041990;28;20495;-93
2021/09/25 00:49:19;;;;;;;2.42;1.65;;;17.60;85.40;;;;;;2058106;28;20055;-93
2021/09/25 00:50:20;;;;;;;4.13;1.90;;;17.50;85.30;;;;;;2060121;28;20057;-94
2021/09/25 00:51:20;;;;;;;2.67;1.60;;;17.60;85.30;;;;;;2057682;28;20039;-93
2021/09/25 00:52:21;;;;;;;3.17;1.65;;;17.60;85.30;;;;;;2041119;29;20046;-93
2021/09/25 00:53:22;;;;;;;2.15;1.50;;;17.50;85.20;;;;;;2041846;29;20039;-94
2021/09/25 00:54:22;;;;;;;3.08;1.80;;;17.50;85.20;;;;;;2049859;29;20043;-93
2021/09/25 00:55:25;;;;;;;2.20;1.50;;;17.60;85.30;;;;;;2041758;29;20639;-93
2021/09/25 00:56:26;;;;;;;2.15;1.35;;;17.50;85.20;;;;;;2049912;28;20131;-93
2021/09/25 00:57:27;;;;;;;2.97;1.63;;;17.60;85.20;;;;;;2057693;28;20043;-94
2021/09/25 00:58:29;;;;;;;2.60;1.52;;;17.50;85.10;;;;;;2049679;29;20095;-93
2021/09/25 00:59:30;;;;;;;1.90;1.30;;;17.50;85.20;;;;;;2049886;29;20546;-94
2021/09/25 01:00:32;;;;;;;2.22;1.38;;;17.50;85.10;;;;;;2049360;28;20493;-94
2021/09/25 01:01:33;;;;;;;2.05;1.30;;;17.50;85.10;;;;;;2057751;28;20067;-93
2021/09/25 01:02:37;;;;;;;2.53;1.50;;;17.50;85.10;;;;;;2051752;28;20039;-93
2021/09/25 01:03:38;;;;;;;2.28;1.40;;;17.50;85.10;;;;;;2052278;28;20035;-90
2021/09/25 01:04:38;;;;;;;2.53;1.40;;;17.60;85.10;;;;;;2056275;28;20035;-92
2021/09/25 01:05:44;;;;;;;3.00;1.38;;;17.60;85.10;;;;;;2052059;29;20039;-88
2021/09/25 01:06:45;;;;;;;2.90;1.50;;;17.60;85.00;;;;;;2051653;28;20038;-93
2021/09/25 01:07:46;;;;;;;2.38;1.70;;;17.60;85.00;;;;;;2058866;28;20067;-94
2021/09/25 01:08:47;;;;;;;3.00;1.48;;;17.60;85.00;;;;;;2057603;29;20065;-94
2021/09/25 01:09:48;;;;;;;3.20;1.63;;;17.60;85.00;;;;;;2048408;29;20047;-93
2021/09/25 01:10:52;;;;;;;2.40;1.50;;;17.60;85.00;;;;;;2035125;29;20123;-93
2021/09/25 01:11:53;;;;;;;2.30;1.40;;;17.60;85.00;;;;;;2042424;29;20602;-92
2021/09/25 01:12:54;;;;;;;2.60;1.58;;;17.50;85.00;;;;;;2053284;28;20051;-93
2021/09/25 01:13:54;;;;;;;3.85;1.40;;;17.60;85.60;;;;;;2057888;28;20513;-94
2021/09/25 01:14:55;;;;;;;3.58;1.50;;;17.60;85.00;;;;;;2041905;29;20188;-94
2021/09/25 01:15:56;;;;;;;2.10;1.33;;;17.50;85.00;;;;;;2034113;29;20135;-94
2021/09/25 01:17:08;;;;;;;2.60;1.33;;;17.50;85.00;;;;;;2057285;28;20122;-93
2021/09/25 01:18:09;;;;;;;2.92;1.60;;;17.50;85.00;;;;;;2052560;28;20086;-93
2021/09/25 01:19:09;;;;;;;2.72;1.60;;;17.50;85.00;;;;;;2049204;29;20051;-93
2021/09/25 01:20:11;;;;;;;2.47;1.50;;;17.50;85.00;;;;;;2034021;29;20036;-94
2021/09/25 01:21:12;;;;;;;2.40;1.52;;;17.50;84.90;;;;;;2034083;29;20040;-93
2021/09/25 01:22:13;;;;;;;2.83;1.55;;;17.50;84.90;;;;;;2047698;28;20466;-93
2021/09/25 01:23:14;;;;;;;2.72;1.50;;;17.50;84.90;;;;;;2065159;28;20053;-93
2021/09/25 01:24:15;;;;;;;3.45;1.60;;;17.50;84.90;;;;;;2065414;28;20544;-94
2021/09/25 01:25:16;;;;;;;3.08;1.77;;;17.50;84.90;;;;;;2057611;28;20031;-93
2021/09/25 01:26:17;;;;;;;2.03;1.30;;;17.50;84.90;;;;;;2056857;28;20521;-94
2021/09/25 01:27:17;;;;;;;2.63;1.60;;;17.50;84.90;;;;;;2065272;28;20046;-93
2021/09/25 01:28:18;;;;;;;1.67;1.23;;;17.50;84.90;;;;;;2057367;28;20458;-94
2021/09/25 01:29:19;;;;;;;3.03;1.50;;;17.50;84.90;;;;;;2041150;29;20055;-93
2021/09/25 01:30:20;;;;;;;2.25;1.60;;;17.50;84.90;;;;;;2049600;28;20187;-93
2021/09/25 01:31:21;;;;;;;1.95;1.52;;;17.50;84.80;;;;;;2045425;28;20513;-94
2021/09/25 01:32:22;;;;;;;3.42;1.73;;;17.50;84.80;;;;;;2049405;28;20039;-93
2021/09/25 01:33:27;;;;;;;1.90;1.30;;;17.50;84.90;;;;;;2049327;28;20031;-94
2021/09/25 01:34:28;;;;;;;2.97;1.50;;;17.50;84.90;;;;;;2058071;28;20033;-94
2021/09/25 01:35:29;;;;;;;3.42;1.77;;;17.40;84.80;;;;;;2049195;28;20035;-93
2021/09/25 01:36:30;;;;;;;3.97;1.63;;;17.40;84.80;;;;;;2049459;29;20035;-94
2021/09/25 01:37:30;;;;;;;4.25;1.70;;;17.40;84.80;;;;;;2041534;28;20051;-94
2021/09/25 01:38:31;;;;;;;2.80;1.60;;;17.40;84.80;;;;;;2057208;28;20501;-94
2021/09/25 01:39:33;;;;;;;3.47;1.90;;;17.40;84.80;;;;;;2073603;28;20038;-93
2021/09/25 01:40:33;;;;;;;3.70;1.50;;;17.40;84.80;;;;;;2065465;28;20033;-93
2021/09/25 01:41:34;;;;;;;2.53;1.50;;;17.40;84.90;;;;;;2057540;28;20146;-94
2021/09/25 01:42:35;;;;;;;3.10;1.67;;;17.40;84.90;;;;;;2065508;28;20034;-92
2021/09/25 01:43:36;;;;;;;3.28;1.70;;;17.40;84.90;;;;;;2065356;28;20059;-94
2021/09/25 01:44:37;;;;;;;2.83;1.70;;;17.40;84.90;;;;;;2065486;28;20583;-93
2021/09/25 01:45:37;;;;;;;2.88;1.60;;;17.40;85.00;;;;;;2049401;29;20514;-93
2021/09/25 01:46:39;;;;;;;4.10;2.00;;;17.40;85.00;;;;;;2057464;28;20039;-94
2021/09/25 01:47:39;;;;;;;3.25;2.00;;;17.40;85.00;;;;;;2065458;28;20053;-93
2021/09/25 01:48:40;;;;;;;2.53;1.60;;;17.40;85.00;;;;;;2057385;28;20405;-92
2021/09/25 01:49:41;;;;;;;3.08;1.80;;;17.40;85.60;;;;;;2057413;28;20062;-93
2021/09/25 01:50:42;;;;;;;2.72;1.55;;;17.40;85.00;;;;;;2049394;29;20051;-93
2021/09/25 01:51:43;;;;;;;3.45;2.00;;;17.40;85.10;;;;;;2055468;28;20125;-93
2021/09/25 01:52:44;;;;;;;2.60;1.83;;;17.40;85.10;;;;;;2065193;28;20042;-94
2021/09/25 01:53:45;;;;;;;3.53;2.10;;;17.40;85.10;;;;;;2072969;28;20037;-93
2021/09/25 01:54:46;;;;;;;2.88;1.90;;;17.40;85.20;;;;;;2065054;28;20068;-93
2021/09/25 01:55:47;;;;;;;3.72;2.50;;;17.40;85.20;;;;;;2065568;28;20031;-93
2021/09/25 01:56:48;;;;;;;3.25;2.08;;;17.30;85.20;;;;;;2065239;28;20101;-93
2021/09/25 01:57:49;;;;;;;3.60;2.30;;;17.30;85.20;;;;;;2057343;28;20592;-94
2021/09/25 01:58:49;;;;;;;3.78;2.20;;;17.30;85.30;;;;;;2057323;28;20137;-93
2021/09/25 01:59:50;;;;;;;3.92;2.45;;;17.30;85.30;;;;;;2057283;28;20035;-94
2021/09/25 02:00:51;;;;;;;3.80;2.38;;;17.30;85.30;;;;;;2065288;28;20034;-94
2021/09/25 02:01:51;;;;;;;4.45;2.30;;;17.30;86.00;;;;;;2049089;29;20036;-94
2021/09/25 02:02:53;;;;;;;4.28;2.72;;;17.30;85.40;;;;;;2055912;28;20050;-93
2021/09/25 02:03:54;;;;;;;4.90;2.35;;;17.30;85.40;;;;;;2065469;28;20026;-94
2021/09/25 02:04:55;;;;;;;4.65;2.70;;;17.30;85.40;;;;;;2065368;28;20493;-93
2021/09/25 02:05:55;;;;;;;3.97;2.38;;;17.30;86.00;;;;;;2057385;28;20030;-93
2021/09/25 02:06:56;;;;;;;4.57;2.80;;;17.30;85.50;;;;;;2056969;28;20129;-93
2021/09/25 02:07:57;;;;;;;3.88;2.45;;;17.30;85.50;;;;;;2065477;28;20601;-94
2021/09/25 02:08:58;;;;;;;3.65;2.25;;;17.30;85.60;;;;;;2057287;28;20077;-92
2021/09/25 02:09:58;;;;;;;4.22;2.47;;;17.30;85.60;;;;;;2056950;28;20466;-93
2021/09/25 02:10:59;;;;;;;4.35;2.72;;;17.30;85.70;;;;;;2057208;28;20039;-94
2021/09/25 02:12:00;;;;;;;4.00;2.70;;;17.20;85.60;;;;;;2057013;28;20409;-93
2021/09/25 02:13:00;;;;;;;4.22;2.40;;;17.30;85.70;;;;;;2057225;28;20379;-93
2021/09/25 02:14:01;;;;;;;4.53;2.63;;;17.20;85.60;;;;;;2049411;29;20046;-93
2021/09/25 02:15:03;;;;;;;4.22;2.83;;;17.20;85.60;;;;;;2048932;28;20035;-93
2021/09/25 02:16:04;;;;;;;4.55;2.65;;;17.30;85.70;;;;;;2049650;28;20066;-94
2021/09/25 02:17:05;;;;;;;4.22;2.70;;;17.20;85.70;;;;;;2049557;28;20039;-93
2021/09/25 02:18:06;;;;;;;3.75;2.47;;;17.20;85.70;;;;;;2050805;28;20067;-93
2021/09/25 02:19:07;;;;;;;4.13;2.67;;;17.20;85.70;;;;;;2055599;28;20028;-89
2021/09/25 02:20:09;;;;;;;4.85;2.65;;;17.20;85.70;;;;;;2058571;28;20066;-93
2021/09/25 02:21:10;;;;;;;4.32;2.70;;;17.20;85.70;;;;;;2059928;28;20034;-93
2021/09/25 02:22:11;;;;;;;5.50;2.70;;;17.30;85.80;;;;;;2045638;28;20494;-93
2021/09/25 02:23:12;;;;;;;4.50;2.80;;;17.30;85.80;;;;;;2054871;29;20046;-94
2021/09/25 02:24:13;;;;;;;4.90;2.90;;;17.20;85.80;;;;;;2055467;29;20119;-93
2021/09/25 02:25:14;;;;;;;4.03;2.55;;;17.20;85.90;;;;;;2047929;29;20071;-93
2021/09/25 02:26:15;;;;;;;5.55;3.13;;;17.20;85.90;;;;;;2056709;28;20437;-93
2021/09/25 02:27:15;;;;;;;4.18;3.03;;;17.20;85.90;;;;;;2057079;29;20142;-93
2021/09/25 02:28:16;;;;;;;4.78;2.83;;;17.20;85.90;;;;;;2064587;28;20039;-93
2021/09/25 02:29:17;;;;;;;4.63;2.63;;;17.20;86.00;;;;;;2052841;29;20098;-93
2021/09/25 02:30:18;;;;;;;5.30;3.10;;;17.20;86.00;;;;;;2051938;28;20604;-94
2021/09/25 02:31:20;;;;;;;4.35;2.80;;;17.20;86.00;;;;;;2054402;29;20035;-93
2021/09/25 02:32:20;;;;;;;4.88;3.10;;;17.20;86.00;;;;;;2047013;29;20051;-93
2021/09/25 02:33:21;;;;;;;5.07;3.17;;;17.20;86.00;;;;;;2047537;29;20051;-94
2021/09/25 02:34:22;;;;;;;4.57;3.03;;;17.20;86.00;;;;;;2042319;29;20047;-93
2021/09/25 02:35:23;;;;;;;5.38;3.20;;;17.20;86.10;;;;;;2034141;29;20036;-93
2021/09/25 02:36:24;;;;;;;4.13;2.63;;;17.20;86.10;;;;;;2041286;29;20426;-93
2021/09/25 02:37:24;;;;;;;4.95;2.85;;;17.20;86.10;;;;;;2050686;29;20046;-94
2021/09/25 02:38:26;;;;;;;4.28;3.08;;;17.20;86.10;;;;;;2051667;29;20036;-93
2021/09/25 02:39:27;;;;;;;4.97;3.08;;;17.20;86.10;;;;;;2043771;28;20047;-93
2021/09/25 02:40:28;;;;;;;4.95;3.00;;;17.20;86.10;;;;;;2051455;28;20118;-93
2021/09/25 02:41:29;;;;;;;5.22;3.00;;;17.20;86.10;;;;;;2046813;29;20040;-93
2021/09/25 02:42:30;;;;;;;4.78;3.20;;;17.20;86.70;;;;;;2049136;29;20062;-93
2021/09/25 02:43:31;;;;;;;5.50;3.20;;;17.20;86.10;;;;;;2035069;29;20032;-93
2021/09/25 02:44:31;;;;;;;5.10;3.17;;;17.20;86.10;;;;;;2048744;29;20039;-94
2021/09/25 02:45:33;;;;;;;4.90;3.10;;;17.20;86.20;;;;;;2050755;28;20035;-94
2021/09/25 02:46:34;;;;;;;4.75;3.03;;;17.20;86.20;;;;;;2050890;28;20522;-93
2021/09/25 02:47:35;;;;;;;5.18;3.17;;;17.10;86.20;;;;;;2050530;29;20039;-93
2021/09/25 02:48:36;;;;;;;4.93;2.90;;;17.20;86.20;;;;;;2042447;28;20064;-94
2021/09/25 02:49:36;;;;;;;5.55;3.30;;;17.20;86.20;;;;;;2058513;28;20031;-93
2021/09/25 02:50:38;;;;;;;5.60;2.88;;;17.10;86.20;;;;;;2066815;28;20038;-94
2021/09/25 02:51:38;;;;;;;4.88;3.15;;;17.10;86.20;;;;;;2058677;28;20051;-93
2021/09/25 02:52:39;;;;;;;5.20;3.00;;;17.10;86.20;;;;;;2058490;28;20082;-93
2021/09/25 02:53:42;;;;;;;4.65;3.00;;;17.10;86.30;;;;;;2050607;29;20074;-92
2021/09/25 02:54:43;;;;;;;4.30;2.88;;;17.10;86.50;;;;;;2051324;28;20053;-93
2021/09/25 02:55:44;;;;;;;6.03;3.45;;;17.10;87.00;;;;;;2050753;29;20050;-93
2021/09/25 02:56:44;;;;;;;5.18;3.15;;;17.10;86.40;;;;;;2034879;29;20554;-93
2021/09/25 02:57:45;;;;;;;5.90;3.00;;;17.10;86.40;;;;;;2050588;29;20042;-93
2021/09/25 02:58:46;;;;;;;5.38;2.88;;;17.10;86.40;;;;;;2050733;28;20086;-93
2021/09/25 02:59:46;;;;;;;4.85;2.95;;;17.10;86.50;;;;;;2042662;29;20036;-93
2021/09/25 03:00:47;;;;;;;4.97;3.10;;;17.00;86.40;;;;;;2034999;29;20526;-93
2021/09/25 03:01:48;;;;;;;5.65;3.22;;;17.00;86.50;;;;;;2042769;29;20028;-93
2021/09/25 03:02:49;;;;;;;5.18;3.10;;;17.00;86.50;;;;;;2050598;28;20051;-93
2021/09/25 03:03:51;;;;;;;5.32;3.10;;;17.00;86.50;;;;;;2058339;28;20027;-93
2021/09/25 03:04:51;;;;;;;5.60;3.10;;;17.00;86.50;;;;;;2050649;29;20035;-93
2021/09/25 03:05:52;;;;;;;4.97;2.92;;;17.00;86.60;;;;;;2042495;29;20055;-93
2021/09/25 03:06:53;;;;;;;5.65;3.33;;;17.00;86.60;;;;;;2042788;29;20050;-92
2021/09/25 03:07:53;;;;;;;5.53;3.25;;;17.00;86.60;;;;;;2034851;29;20077;-93
2021/09/25 03:08:54;;;;;;;4.88;3.10;;;17.00;86.60;;;;;;2050337;29;20090;-93
2021/09/25 03:09:54;;;;;;;5.80;3.05;;;17.00;86.70;;;;;;2050351;29;20035;-93
2021/09/25 03:10:55;;;;;;;5.65;3.35;;;17.00;86.70;;;;;;2042565;29;20438;-93
2021/09/25 03:11:56;;;;;;;5.68;3.60;;;16.90;86.70;;;;;;2034679;29;20071;-93
2021/09/25 03:12:56;;;;;;;5.30;3.33;;;16.90;86.70;;;;;;2042552;29;20039;-93
2021/09/25 03:13:57;;;;;;;6.90;2.90;;;16.90;86.70;;;;;;2066990;28;20038;-93
2021/09/25 03:14:58;;;;;;;5.20;3.20;;;17.00;86.80;;;;;;2066859;28;20035;-93
2021/09/25 03:16:00;;;;;;;5.05;3.20;;;16.90;86.80;;;;;;2058552;28;20038;-93
2021/09/25 03:17:01;;;;;;;5.63;3.20;;;16.90;86.80;;;;;;2050422;28;20039;-93
2021/09/25 03:18:02;;;;;;;6.22;3.20;;;16.90;86.80;;;;;;2050733;28;20043;-93
2021/09/25 03:19:03;;;;;;;5.03;3.33;;;16.90;86.80;;;;;;2050418;28;20498;-93
2021/09/25 03:20:05;;;;;;;5.72;3.38;;;16.90;86.80;;;;;;2049940;29;20043;-93
2021/09/25 03:21:06;;;;;;;5.50;3.17;;;16.90;86.90;;;;;;2043185;28;20035;-93
2021/09/25 03:22:07;;;;;;;5.03;2.95;;;16.90;86.90;;;;;;2055515;28;20146;-93
2021/09/25 03:23:07;;;;;;;7.65;4.30;;;16.90;86.90;;;;;;2050714;28;20126;-93
2021/09/25 03:24:08;;;;;;;6.05;3.47;;;16.90;86.90;;;;;;2042515;29;20032;-93
2021/09/25 03:25:09;;;;;;;4.57;2.88;;;16.90;86.90;;;;;;2050074;28;20071;-94
2021/09/25 03:26:10;;;;;;;5.43;3.42;;;16.90;86.90;;;;;;2050351;29;20038;-94
2021/09/25 03:27:11;;;;;;;7.03;3.70;;;16.90;86.90;;;;;;2042676;29;20036;-93
2021/09/25 03:28:12;;;;;;;6.20;3.38;;;16.80;86.90;;;;;;2058381;28;20054;-93
2021/09/25 03:29:13;;;;;;;6.35;3.78;;;16.90;87.00;;;;;;2050439;29;20047;-93
2021/09/25 03:30:14;;;;;;;7.32;3.75;;;16.90;87.00;;;;;;2042722;29;20502;-93
2021/09/25 03:31:15;;;;;;;5.95;3.75;;;16.90;87.00;;;;;;2058595;28;20563;-93
2021/09/25 03:32:15;;;;;;;5.72;3.35;;;16.90;87.10;;;;;;2066690;28;20109;-93
2021/09/25 03:33:16;;;;;;;6.07;3.38;;;16.80;87.00;;;;;;2058274;28;20494;-93
2021/09/25 03:34:17;;;;;;;6.47;3.40;;;16.80;87.00;;;;;;2058342;28;20047;-93
2021/09/25 03:35:17;;;;;;;5.90;3.47;;;16.80;87.10;;;;;;2058496;28;20486;-93
2021/09/25 03:36:18;;;;;;;5.80;3.67;;;16.80;87.10;;;;;;2058397;28;20479;-92
2021/09/25 03:37:19;;;;;;;6.35;3.67;;;16.80;87.10;;;;;;2050351;29;20039;-93
2021/09/25 03:38:21;;;;;;;6.85;3.70;;;16.90;87.20;;;;;;2050284;29;20039;-93
2021/09/25 03:39:22;;;;;;;5.30;3.38;;;16.80;87.10;;;;;;2058043;28;20034;-93
2021/09/25 03:40:23;;;;;;;5.43;3.63;;;16.80;87.10;;;;;;2058332;28;20375;-93
2021/09/25 03:41:23;;;;;;;6.65;3.75;;;16.80;87.10;;;;;;2050166;28;20063;-93
2021/09/25 03:42:24;;;;;;;5.50;3.40;;;16.80;87.20;;;;;;2058326;28;20469;-93
2021/09/25 03:43:25;;;;;;;6.97;3.58;;;16.80;87.10;;;;;;2042350;29;20062;-93
2021/09/25 03:44:25;;;;;;;6.03;3.65;;;16.80;87.10;;;;;;2049924;28;20046;-93
2021/09/25 03:45:26;;;;;;;6.78;3.60;;;16.80;87.10;;;;;;2050358;29;20498;-93
2021/09/25 03:46:27;;;;;;;6.20;3.78;;;16.80;87.10;;;;;;2050561;29;20071;-93
2021/09/25 03:47:27;;;;;;;5.90;3.40;;;16.80;87.10;;;;;;2060232;28;20091;-93
2021/09/25 03:48:28;;;;;;;6.03;3.80;;;16.80;87.00;;;;;;2076347;28;20045;-91
2021/09/25 03:49:29;;;;;;;5.72;3.70;;;16.80;87.00;;;;;;2068479;28;20049;-91
2021/09/25 03:50:29;;;;;;;6.80;3.72;;;16.80;87.00;;;;;;2068107;28;20087;-93
2021/09/25 03:51:31;;;;;;;5.85;3.83;;;16.80;87.00;;;;;;2074392;28;20061;-93
2021/09/25 03:52:31;;;;;;;6.20;3.70;;;16.80;87.00;;;;;;2074033;28;20041;-93
2021/09/25 03:53:32;;;;;;;5.88;3.88;;;16.80;87.00;;;;;;2065853;28;20047;-92
2021/09/25 03:54:32;;;;;;;5.70;3.83;;;16.80;87.10;;;;;;2062310;28;20078;-91
2021/09/25 03:55:33;;;;;;;6.47;4.05;;;16.80;87.10;;;;;;2049414;29;20463;-93
2021/09/25 03:56:34;;;;;;;5.50;3.75;;;16.80;87.10;;;;;;2042790;29;20491;-93
2021/09/25 03:57:35;;;;;;;6.50;4.10;;;16.80;87.10;;;;;;2050667;28;20047;-93
2021/09/25 03:58:37;;;;;;;6.07;3.88;;;16.80;87.10;;;;;;2067280;28;20104;-93
2021/09/25 03:59:37;;;;;;;5.50;3.53;;;16.80;87.10;;;;;;2066315;28;20069;-93
2021/09/25 04:00:42;;;;;;;6.00;4.03;;;16.80;87.10;;;;;;2050592;28;20093;-93
2021/09/25 04:01:43;;;;;;;6.78;3.70;;;16.80;87.10;;;;;;2051269;28;20036;-93
2021/09/25 04:02:43;;;;;;;6.63;4.10;;;16.80;87.20;;;;;;2058036;28;20057;-92
2021/09/25 04:03:44;;;;;;;6.13;3.88;;;16.80;87.20;;;;;;2042241;29;20494;-93
2021/09/25 04:04:45;;;;;;;7.28;4.30;;;16.80;87.20;;;;;;2042375;29;20036;-94
2021/09/25 04:05:46;;;;;;;6.00;3.90;;;16.80;87.10;;;;;;2050004;28;20121;-93
2021/09/25 04:06:46;;;;;;;7.13;3.60;;;16.80;87.70;;;;;;2066632;28;20470;-91
2021/09/25 04:07:48;;;;;;;6.30;3.72;;;16.80;87.20;;;;;;2058101;28;20493;-93
2021/09/25 04:08:49;;;;;;;7.38;4.10;;;16.80;87.20;;;;;;2058268;28;20035;-93
2021/09/25 04:09:50;;;;;;;5.93;3.80;;;16.80;87.20;;;;;;2058090;28;20039;-94
2021/09/25 04:10:51;;;;;;;5.78;3.70;;;16.80;87.20;;;;;;2057663;28;20489;-93
2021/09/25 04:11:51;;;;;;;6.72;3.83;;;16.80;87.20;;;;;;2050037;29;20050;-91
2021/09/25 04:12:52;;;;;;;6.50;4.00;;;16.80;87.20;;;;;;2044674;29;20031;-93
2021/09/25 04:13:53;;;;;;;7.07;4.15;;;16.80;87.20;;;;;;2055417;28;20114;-93
2021/09/25 04:14:53;;;;;;;6.85;4.07;;;16.80;87.20;;;;;;2066392;28;20034;-93
2021/09/25 04:15:54;;;;;;;6.50;4.03;;;16.80;87.20;;;;;;2049869;29;20031;-93
2021/09/25 04:16:55;;;;;;;5.47;3.35;;;16.80;87.20;;;;;;2041774;29;20135;-93
2021/09/25 04:17:55;;;;;;;7.15;3.97;;;16.80;87.20;;;;;;2042620;29;20047;-93
2021/09/25 04:18:56;;;;;;;6.68;3.80;;;16.80;87.20;;;;;;2043389;29;20046;-93
2021/09/25 04:19:56;;;;;;;6.43;3.90;;;16.80;87.20;;;;;;2035739;29;20178;-93
2021/09/25 04:20:57;;;;;;;6.55;3.80;;;16.80;87.20;;;;;;2047964;29;20028;-88
2021/09/25 04:21:58;;;;;;;6.88;4.35;;;16.90;87.20;;;;;;2063891;28;20045;-91
2021/09/25 04:22:58;;;;;;;6.90;4.32;;;16.80;87.20;;;;;;2066709;28;20057;-92
2021/09/25 04:23:59;;;;;;;5.95;3.80;;;16.90;87.20;;;;;;2051342;29;20043;-93
2021/09/25 04:25:00;;;;;;;6.32;4.05;;;16.80;87.20;;;;;;2043892;29;20040;-93
2021/09/25 04:26:01;;;;;;;7.38;4.10;;;16.80;87.20;;;;;;2051186;29;20092;-94
2021/09/25 04:27:01;;;;;;;6.90;3.88;;;16.80;87.20;;;;;;2052783;28;20031;-93
2021/09/25 04:28:05;;;;;;;6.88;3.95;;;16.80;87.20;;;;;;2059979;28;20046;-93
2021/09/25 04:29:06;;;;;;;6.03;4.00;;;16.80;87.20;;;;;;2066130;28;20038;-93
2021/09/25 04:30:07;;;;;;;7.32;4.28;;;16.80;87.20;;;;;;2050219;29;20036;-92
2021/09/25 04:31:08;;;;;;;6.95;3.88;;;16.80;87.20;;;;;;2058043;28;20438;-94
2021/09/25 04:32:09;;;;;;;7.00;4.07;;;16.80;87.20;;;;;;2058174;28;20070;-92
2021/09/25 04:33:11;;;;;;;6.63;3.97;;;16.80;87.20;;;;;;2057240;28;20616;-93
2021/09/25 04:34:12;;;;;;;6.53;3.97;;;16.80;87.30;;;;;;2058124;28;20035;-94
2021/09/25 04:35:13;;;;;;;7.03;4.20;;;16.80;87.30;;;;;;2065798;28;20077;-92
2021/09/25 04:36:14;;;;;;;6.35;3.92;;;16.80;87.30;;;;;;2057943;28;20072;-93
2021/09/25 04:37:14;;;;;;;7.57;4.55;;;16.80;87.30;;;;;;2057953;28;20061;-93
2021/09/25 04:38:15;;;;;;;7.88;4.53;;;16.80;87.30;;;;;;2061796;28;20129;-93
2021/09/25 04:39:16;;;;;;;6.93;3.67;;;16.80;87.30;;;;;;2058105;28;20502;-93
2021/09/25 04:40:16;;;;;;;7.57;4.47;;;16.80;87.30;;;;;;2049929;28;20126;-93
2021/09/25 04:41:17;;;;;;;6.22;4.00;;;16.80;87.30;;;;;;2049720;28;20046;-93
2021/09/25 04:42:18;;;;;;;6.95;3.95;;;16.80;87.30;;;;;;2041974;29;20036;-93
2021/09/25 04:43:19;;;;;;;6.88;4.15;;;16.80;87.30;;;;;;2054743;28;20138;-93
2021/09/25 04:44:19;;;;;;;8.18;4.25;;;16.80;87.30;;;;;;2066032;28;20493;-94
2021/09/25 04:45:20;;;;;;;6.15;3.97;;;16.80;87.30;;;;;;2059566;28;20157;-92
2021/09/25 04:46:21;;;;;;;8.05;4.43;;;16.80;87.40;;;;;;2057463;28;20129;-93
2021/09/25 04:47:21;;;;;;;7.45;4.25;;;16.80;87.40;;;;;;2057842;28;20035;-93
2021/09/25 04:48:22;;;;;;;6.18;3.80;;;16.80;87.40;;;;;;2057926;28;20035;-93
2021/09/25 04:49:23;;;;;;;7.75;4.50;;;16.80;88.00;;;;;;2057619;28;20061;-93
2021/09/25 04:50:28;;;;;;;7.47;4.32;;;16.80;87.40;;;;;;2065759;28;20042;-92
2021/09/25 04:51:29;;;;;;;8.75;4.32;;;16.80;88.00;;;;;;2049965;29;20047;-93
2021/09/25 04:52:30;;;;;;;7.75;4.45;;;16.80;87.40;;;;;;2042677;29;20371;-93
2021/09/25 04:53:30;;;;;;;6.88;4.38;;;16.80;87.40;;;;;;2063827;28;20390;-92
2021/09/25 04:54:31;;;;;;;6.45;4.38;;;16.80;87.40;;;;;;2065951;28;20039;-92
2021/09/25 04:55:32;;;;;;;6.72;4.25;;;16.80;87.40;;;;;;2058037;28;20039;-93
2021/09/25 04:56:33;;;;;;;7.10;4.20;;;16.80;87.50;;;;;;2057724;28;20031;-92
2021/09/25 04:57:35;;;;;;;6.03;4.07;;;16.80;87.50;;;;;;2049901;28;20039;-93
2021/09/25 04:58:35;;;;;;;6.00;4.10;;;16.80;87.70;;;;;;2066147;28;20074;-93
2021/09/25 04:59:36;;;;;;;7.15;4.50;;;16.80;87.50;;;;;;2049240;29;20458;-93
2021/09/25 05:00:37;;;;;;;6.47;4.05;;;16.80;87.50;;;;;;2041637;28;20075;-92
2021/09/25 05:01:38;;;;;;;6.50;4.10;;;16.80;87.50;;;;;;2065745;28;20050;-93
2021/09/25 05:02:38;;;;;;;6.20;4.13;;;16.80;87.50;;;;;;2065463;28;20031;-94
2021/09/25 05:03:39;;;;;;;7.22;4.40;;;16.80;88.00;;;;;;2049210;28;20050;-93
2021/09/25 05:04:40;;;;;;;6.80;3.88;;;16.80;87.40;;;;;;2049009;28;20138;-93
2021/09/25 05:05:40;;;;;;;6.13;3.90;;;16.80;87.50;;;;;;2051505;29;20050;-93
2021/09/25 05:06:41;;;;;;;8.07;4.53;;;16.70;87.40;;;;;;2054569;29;20040;-93
2021/09/25 05:07:41;;;;;;;5.63;3.85;;;16.80;87.50;;;;;;2064329;28;20074;-93
2021/09/25 05:08:42;;;;;;;6.45;4.30;;;16.80;87.50;;;;;;2080006;28;20046;-93
2021/09/25 05:09:44;;;;;;;7.22;4.30;;;16.80;87.50;;;;;;2080771;28;20030;-93
2021/09/25 05:10:45;;;;;;;7.38;4.35;;;16.80;87.50;;;;;;2057713;28;20501;-93
2021/09/25 05:11:45;;;;;;;7.03;4.65;;;16.70;87.50;;;;;;2061099;28;20040;-93
2021/09/25 05:12:46;;;;;;;6.43;4.18;;;16.70;87.50;;;;;;2057291;28;20543;-93
2021/09/25 05:13:47;;;;;;;6.28;4.03;;;16.70;87.50;;;;;;2065980;28;20069;-93
2021/09/25 05:14:47;;;;;;;7.25;4.05;;;16.70;87.60;;;;;;2065696;28;20618;-92
2021/09/25 05:15:48;;;;;;;5.88;4.22;;;16.70;87.50;;;;;;2057328;28;20042;-93
2021/09/25 05:16:49;;;;;;;6.60;4.32;;;16.80;87.60;;;;;;2041789;28;20117;-92
2021/09/25 05:17:49;;;;;;;7.28;4.35;;;16.70;87.50;;;;;;2049843;28;20098;-92